Silver Mariner — V7XQ6 — position and weather

sailwx.info

Track history (hours):
 
Tides and Currents Weather Stations Pressure Air Temp Water Temp Dewpoint Dewpoint Depression Visibility Wind Speed Wind Dir Waves Ship Positions

Silver Mariner

Last reported at 2018-May-12 20:12 UTC. Time now 2018-May-27 08:05 UTC.
Position N 32°55' E 128°00'.
Warning: this ship's position is 14 days out of date.

Length 288 m; draft 8.6 m.

Type: Cargo ship. MMSI: 538004545.

Date/timePositionNaut miles runAvg speedWind from/ knotsBaromVisibWave heightAir tempDewpointWater temp
2018-May-12 20:12N 32°55' E 128°00'415.9
2018-May-12 19:57N 32°59' E 128°02'816.0
2018-May-12 19:27N 33°06' E 128°06'2615.8
2018-May-12 17:49N 33°29' E 128°19'7615.6
2018-May-12 12:56N 34°40' E 128°53'1715.9
2018-May-12 11:52N 34°57' E 128°49'26 1.3
2018-May-11 15:43N 34°48' E 129°18'211.9
2018-May-11 15:30N 34°48' E 129°21'510.1
2018-May-11 15:00N 34°48' E 129°27'610.7
2018-May-11 14:29N 34°47' E 129°33'611.2
2018-May-11 13:59N 34°44' E 129°40'511.1
2018-May-11 13:30N 34°42' E 129°45'611.2
2018-May-11 13:00N 34°38' E 129°51'611.1
2018-May-11 12:30N 34°35' E 129°56'510.8
2018-May-11 12:00N 34°32' E 130°01'510.8
2018-May-11 11:30N 34°29' E 130°07'510.4
2018-May-11 11:00N 34°25' E 130°12'510.5
2018-May-11 10:30N 34°22' E 130°17'510.8
2018-May-11 10:00N 34°19' E 130°22'611.2
2018-May-11 09:30N 34°16' E 130°28'611.5
2018-May-11 09:00N 34°13' E 130°33'611.6
2018-May-11 08:30N 34°09' E 130°39'611.4
2018-May-11 08:00N 34°05' E 130°44'611.1
2018-May-11 07:30N 34°03' E 130°50'510.2
2018-May-11 07:00N 33°58' E 130°53'4 7.6
2018-May-11 06:31N 33°55' E 130°56'510.5
2018-May-11 06:00N 33°58' E 131°01'612.2
2018-May-11 05:30N 33°55' E 131°07'4 8.2
2018-May-11 05:00N 33°52' E 131°11'714.7
2018-May-11 04:30N 33°50' E 131°19'816.2
2018-May-11 04:00N 33°49' E 131°29'816.0
2018-May-11 03:30N 33°47' E 131°38'714.2
2018-May-11 03:00N 33°44' E 131°46'815.5
2018-May-11 02:30N 33°37' E 131°49'815.2
2018-May-11 02:00N 33°30' E 131°53'715.0
2018-May-11 01:30N 33°23' E 131°57'713.0
2018-May-11 01:00N 33°18' E 132°02'612.1
2018-May-11 00:29N 33°12' E 132°05'612.5
2018-May-11 00:00N 33°08' E 132°09'912.5
2018-May-10 23:16N 32°59' E 132°14'32 9.1
2018-May-10 19:44N 32°36' E 132°40'413.3
2018-May-10 19:27N 32°38' E 132°44'2711.8
2018-May-10 17:10N 32°43' E 133°15'1115.9
2018-May-10 16:30N 32°48' E 133°26'8115.5
2018-May-10 11:17N 33°38' E 134°42'1016.2
2018-May-10 10:41N 33°45' E 134°49'316.6
2018-May-10 10:29N 33°48' E 134°52'815.4
2018-May-10 09:59N 33°55' E 134°55'816.0
2018-May-10 09:30N 34°03' E 134°55'816.4
2018-May-10 09:00N 34°11' E 134°57'612.7
2018-May-10 08:31N 34°17' E 134°59'815.7
2018-May-10 08:00N 34°24' E 135°03'816.3
2018-May-10 07:30N 34°30' E 135°09'815.9
2018-May-10 07:01N 34°37' E 135°15'4 8.2
2018-May-10 06:30N 34°41' E 135°16'0 0.0
2018-May-10 06:00N 34°41' E 135°16'0 0.0
2018-May-10 05:30N 34°41' E 135°16'0 0.0
2018-May-10 05:00N 34°41' E 135°16'0 0.0
2018-May-10 04:30N 34°41' E 135°16'0 0.0
2018-May-10 04:00N 34°41' E 135°16'0 0.0
2018-May-10 03:30N 34°41' E 135°16'0 0.0
2018-May-10 02:57N 34°41' E 135°16'0 0.0
2018-May-10 02:30N 34°41' E 135°16'0 0.0
2018-May-10 02:00N 34°41' E 135°16'0 0.0
2018-May-10 01:30N 34°41' E 135°16'0 0.0
2018-May-10 01:00N 34°41' E 135°16'0 0.0
2018-May-10 00:30N 34°41' E 135°16'0 0.0
2018-May-10 00:00N 34°41' E 135°16'0 0.0
2018-May-09 23:30N 34°41' E 135°16'0 0.0
2018-May-09 23:00N 34°41' E 135°16'0 0.0
2018-May-09 22:30N 34°41' E 135°16'1 1.9
2018-May-09 22:00N 34°40' E 135°15'510.0
2018-May-09 21:31N 34°35' E 135°16'815.5
2018-May-09 21:01N 34°28' E 135°10'815.8
2018-May-09 20:31N 34°22' E 135°04'815.1
2018-May-09 20:00N 34°16' E 134°59'714.0
2018-May-09 19:30N 34°09' E 134°59'510.5
2018-May-09 19:00N 34°04' E 134°60'510.4
2018-May-09 18:30N 33°58' E 134°60'5 9.3
2018-May-09 18:00N 33°54' E 134°60'5 9.3
2018-May-09 17:30N 33°49' E 135°00'5 9.3
2018-May-09 16:59N 33°45' E 135°02'5 8.8
2018-May-09 16:25N 33°40' E 135°05'4 9.0
2018-May-09 15:56N 33°39' E 135°10'7 9.2
2018-May-09 15:09N 33°35' E 135°17'3 9.0
2018-May-09 14:52N 33°34' E 135°19'4 9.7
2018-May-09 14:25N 33°31' E 135°24'16210.1
2018-May-08 22:20N 34°22' E 138°29'610.7
2018-May-08 21:47N 34°25' E 138°35'1212.3
2018-May-08 20:48N 34°30' E 138°49'413.1
2018-May-08 20:30N 34°31' E 138°53'812.5
2018-May-08 19:51N 34°36' E 139°01'412.2
2018-May-08 19:30N 34°39' E 139°04'812.2
2018-May-08 18:50N 34°46' E 139°10'1012.0
2018-May-08 18:02N 34°53' E 139°18'012.7
2018-May-08 18:00N 34°53' E 139°18'611.7
2018-May-08 17:28N 34°56' E 139°25'611.9
2018-May-08 17:00N 34°59' E 139°31'612.7
2018-May-08 16:30N 35°02' E 139°38'714.5
2018-May-08 16:01N 35°07' E 139°44'612.8
2018-May-08 15:30N 35°13' E 139°46'612.9
2018-May-08 15:00N 35°19' E 139°43'612.7
2018-May-08 14:30N 35°26' E 139°43'2 4.8
2018-May-08 14:00N 35°28' E 139°42'0 0.0
2018-May-08 13:29N 35°28' E 139°42'0 0.0
2018-May-08 12:59N 35°28' E 139°42'0 0.0
2018-May-08 12:29N 35°28' E 139°42'0 0.0
2018-May-08 11:59N 35°28' E 139°42'0 0.0
2018-May-08 11:29N 35°28' E 139°42'0 0.0
2018-May-08 10:59N 35°28' E 139°42'0 0.0
2018-May-08 10:29N 35°28' E 139°42'0 0.0
2018-May-08 09:59N 35°28' E 139°42'0 0.0
2018-May-08 09:29N 35°28' E 139°42'0 0.0
2018-May-08 08:59N 35°28' E 139°42'0 0.0
2018-May-08 08:29N 35°28' E 139°42'0 0.0
2018-May-08 07:59N 35°28' E 139°42'0 0.0
2018-May-08 07:29N 35°28' E 139°42'0 0.0
2018-May-08 06:59N 35°28' E 139°42'0 0.0
2018-May-08 06:29N 35°28' E 139°42'0 0.0
2018-May-08 05:59N 35°28' E 139°42'0 0.0
2018-May-08 05:29N 35°28' E 139°42'0 0.0
2018-May-08 04:59N 35°28' E 139°42'0 0.0
2018-May-08 04:29N 35°28' E 139°42'0 0.0
2018-May-08 03:59N 35°28' E 139°42'0 0.0
2018-May-08 03:29N 35°28' E 139°42'0 0.0
2018-May-08 02:59N 35°28' E 139°42'0 0.0
2018-May-08 02:29N 35°28' E 139°42'0 0.0
2018-May-08 01:59N 35°28' E 139°42'0 0.0
2018-May-08 01:29N 35°28' E 139°42'0 0.0
2018-May-08 00:59N 35°28' E 139°42'0 0.0
2018-May-08 00:29N 35°28' E 139°42'0 0.0
2018-May-07 23:59N 35°28' E 139°42'0 0.0
2018-May-07 23:29N 35°28' E 139°42'0 0.0
2018-May-07 22:59N 35°28' E 139°42'0 0.2
2018-May-07 22:30N 35°28' E 139°42'3 6.2
2018-May-07 22:00N 35°27' E 139°45'4 8.3
2018-May-07 21:30N 35°29' E 139°50'5 9.9
2018-May-07 21:00N 35°34' E 139°49'3 6.7
2018-May-07 20:30N 35°36' E 139°46'0 0.0
2018-May-07 19:57N 35°36' E 139°46'0 0.0
2018-May-07 19:27N 35°36' E 139°46'0 0.0
2018-May-07 19:00N 35°36' E 139°46'0 0.0
2018-May-07 18:30N 35°36' E 139°46'0 0.0
2018-May-07 17:57N 35°36' E 139°46'0 0.0
2018-May-07 17:30N 35°36' E 139°46'0 0.0
2018-May-07 16:57N 35°36' E 139°46'0 0.0
2018-May-07 16:27N 35°36' E 139°46'0 0.0
2018-May-07 15:51N 35°36' E 139°46'0 0.0
2018-May-07 15:27N 35°36' E 139°46'0 0.0
2018-May-07 14:57N 35°36' E 139°46'0 0.0
2018-May-07 14:24N 35°36' E 139°46'0 0.0
2018-May-07 14:00N 35°36' E 139°46'0 0.0
2018-May-07 13:24N 35°36' E 139°46'0 0.0
2018-May-07 13:00N 35°36' E 139°46'0 0.0
2018-May-07 12:30N 35°36' E 139°46'0 0.0
2018-May-07 11:57N 35°36' E 139°46'0 0.0
2018-May-07 11:27N 35°36' E 139°46'0 0.0
2018-May-07 11:00N 35°36' E 139°46'0 0.0
2018-May-07 10:27N 35°36' E 139°46'0 0.0
2018-May-07 09:57N 35°36' E 139°46'0 0.0
2018-May-07 09:27N 35°36' E 139°46'0 0.0
2018-May-07 09:00N 35°36' E 139°46'0 0.0
2018-May-07 08:27N 35°36' E 139°46'0 0.0
2018-May-07 07:57N 35°36' E 139°46'0 0.0
2018-May-07 07:21N 35°36' E 139°46'0 0.0
2018-May-07 06:57N 35°36' E 139°46'0 0.1
2018-May-07 06:12N 35°36' E 139°46'0 0.2
2018-May-07 05:57N 35°36' E 139°46'2 5.6
2018-May-07 05:30N 35°34' E 139°49'3 5.5
2018-May-07 05:00N 35°34' E 139°52'0 0.7
2018-May-07 04:29N 35°34' E 139°52'0 0.0
2018-May-07 03:59N 35°34' E 139°52'0 0.1
2018-May-07 03:29N 35°34' E 139°52'0 0.0
2018-May-07 02:59N 35°34' E 139°52'0 0.0
2018-May-07 02:26N 35°34' E 139°52'0 0.0
2018-May-07 01:56N 35°34' E 139°52'0 0.0
2018-May-07 01:29N 35°34' E 139°52'0 0.1
2018-May-07 00:59N 35°34' E 139°52'0 0.0
2018-May-07 00:29N 35°34' E 139°52'0 0.1
2018-May-06 23:59N 35°34' E 139°52'0 0.0
2018-May-06 23:29N 35°34' E 139°52'0 0.0
2018-May-06 22:59N 35°34' E 139°52'0 0.0
2018-May-06 22:29N 35°34' E 139°52'0 0.0
2018-May-06 21:59N 35°34' E 139°52'0 0.0
2018-May-06 21:26N 35°34' E 139°52'0 0.0
2018-May-06 20:59N 35°34' E 139°52'0 0.0
2018-May-06 20:29N 35°34' E 139°52'0 0.0
2018-May-06 19:59N 35°34' E 139°52'0 0.0
2018-May-06 19:29N 35°34' E 139°52'0 0.0
2018-May-06 18:59N 35°34' E 139°52'0 0.0
2018-May-06 18:29N 35°34' E 139°52'0 0.0
2018-May-06 17:59N 35°34' E 139°52'0 0.0
2018-May-06 17:29N 35°34' E 139°52'0 0.0
2018-May-06 16:59N 35°34' E 139°52'0 0.0
2018-May-06 16:29N 35°34' E 139°52'0 0.1
2018-May-06 15:59N 35°34' E 139°52'0 0.0
2018-May-06 15:29N 35°34' E 139°52'0 0.0
2018-May-06 14:59N 35°34' E 139°52'0 0.0
2018-May-06 14:29N 35°34' E 139°52'0 0.0
2018-May-06 13:59N 35°34' E 139°52'0 0.0
2018-May-06 13:29N 35°34' E 139°52'0 0.5
2018-May-06 13:01N 35°34' E 139°52'4 8.3
2018-May-06 12:31N 35°30' E 139°52'714.8
2018-May-06 12:01N 35°24' E 139°46'612.7
2018-May-06 11:30N 35°18' E 139°45'611.8
2018-May-06 11:00N 35°12' E 139°47'510.1
2018-May-06 10:30N 35°08' E 139°46'5 9.6
2018-May-06 10:00N 35°03' E 139°43'510.9
2018-May-06 09:30N 34°60' E 139°38'612.3
2018-May-06 09:00N 34°56' E 139°33'612.6
2018-May-06 08:30N 34°52' E 139°26'2 3.5
2018-May-06 08:00N 34°53' E 139°28'5 9.9
2018-May-06 07:30N 34°51' E 139°23'612.9
2018-May-06 07:00N 34°47' E 139°17'918.0
2018-May-06 06:30N 34°40' E 139°09'918.2
2018-May-06 06:00N 34°34' E 139°01'917.5
2018-May-06 05:30N 34°31' E 138°51'917.6
2018-May-06 05:00N 34°30' E 138°40'917.3
2018-May-06 04:31N 34°30' E 138°30'917.0
2018-May-06 03:59N 34°29' E 138°19'816.9
2018-May-06 03:30N 34°28' E 138°09'817.3
2018-May-06 03:00N 34°28' E 137°59'917.9
2018-May-06 02:31N 34°29' E 137°48'917.8
2018-May-06 01:59N 34°29' E 137°37'817.6
2018-May-06 01:30N 34°28' E 137°27'816.8
2018-May-06 01:00N 34°28' E 137°16'1016.0
2018-May-06 00:24N 34°30' E 137°05'513.1
2018-May-06 00:00N 34°34' E 137°00'712.6
2018-May-05 23:25N 34°38' E 136°53'512.0
2018-May-05 23:00N 34°41' E 136°49'713.9
2018-May-05 22:30N 34°48' E 136°45'714.9
2018-May-05 22:00N 34°55' E 136°46'611.5
2018-May-05 21:30N 35°01' E 136°48'2 2.6
2018-May-05 20:55N 35°02' E 136°49'0 0.0
2018-May-05 20:25N 35°02' E 136°49'0 0.0
2018-May-05 19:55N 35°02' E 136°49'0 0.0
2018-May-05 19:25N 35°02' E 136°49'0 0.0
2018-May-05 18:58N 35°02' E 136°49'0 0.0
2018-May-05 18:28N 35°02' E 136°49'0 0.0
2018-May-05 17:58N 35°02' E 136°49'0 0.0
2018-May-05 17:25N 35°02' E 136°49'0 0.0
2018-May-05 16:55N 35°02' E 136°49'0 0.0
2018-May-05 16:25N 35°02' E 136°49'0 0.0
2018-May-05 15:58N 35°02' E 136°49'0 0.0
2018-May-05 15:28N 35°02' E 136°49'0 0.0
2018-May-05 14:58N 35°02' E 136°49'0 0.0
2018-May-05 14:28N 35°02' E 136°49'0 0.0
2018-May-05 13:55N 35°02' E 136°49'0 0.0
2018-May-05 13:25N 35°02' E 136°49'0 0.0
2018-May-05 12:55N 35°02' E 136°49'0 0.0
2018-May-05 12:25N 35°02' E 136°49'0 0.0
2018-May-05 11:55N 35°02' E 136°49'0 0.0
2018-May-05 11:28N 35°02' E 136°49'0 0.0
2018-May-05 10:55N 35°02' E 136°49'0 0.0
2018-May-05 10:25N 35°02' E 136°49'0 0.0
2018-May-05 09:58N 35°02' E 136°49'0 0.0
2018-May-05 09:28N 35°02' E 136°49'0 0.0
2018-May-05 08:58N 35°02' E 136°49'0 0.0
2018-May-05 08:28N 35°02' E 136°49'0 0.0
2018-May-05 07:58N 35°02' E 136°49'0 0.3
2018-May-05 07:31N 35°02' E 136°49'3 6.2
2018-May-05 07:00N 34°59' E 136°47'510.3
2018-May-05 06:30N 34°60' E 136°40'0 0.6
2018-May-05 05:59N 34°60' E 136°40'0 0.0
2018-May-05 05:29N 34°60' E 136°40'0 0.0
2018-May-05 04:59N 34°60' E 136°40'0 0.0
2018-May-05 04:29N 34°60' E 136°40'0 0.0
2018-May-05 03:47N 34°60' E 136°40'0 0.0
2018-May-05 03:29N 34°60' E 136°40'0 0.0
2018-May-05 02:59N 34°60' E 136°40'0 0.0
2018-May-05 02:29N 34°60' E 136°40'0 0.0
2018-May-05 01:59N 34°60' E 136°40'0 0.0
2018-May-05 01:29N 34°60' E 136°40'0 0.0
2018-May-05 00:59N 34°60' E 136°40'0 0.0
2018-May-05 00:29N 34°60' E 136°40'0 0.1
2018-May-04 23:59N 34°60' E 136°40'2 4.8
2018-May-04 23:30N 34°59' E 136°43'714.6
2018-May-04 23:00N 34°52' E 136°45'816.0
2018-May-04 22:30N 34°44' E 136°49'915.5
2018-May-04 21:56N 34°37' E 136°56'713.9
2018-May-04 21:27N 34°33' E 137°01'510.0
2018-May-04 20:57N 34°29' E 137°05'611.0
2018-May-04 20:26N 34°23' E 137°05'5116.0
2018-May-04 17:14N 33°42' E 136°28'5315.2
2018-May-04 13:43N 33°26' E 135°27'718.0
2018-May-04 13:19N 33°29' E 135°19'717.7
2018-May-04 12:56N 33°33' E 135°12'817.3
2018-May-04 12:30N 33°39' E 135°08'817.0
2018-May-04 12:00N 33°47' E 135°03'816.3
2018-May-04 11:30N 33°54' E 134°60'816.1
2018-May-04 11:01N 34°02' E 134°59'816.5
2018-May-04 10:30N 34°10' E 134°58'612.5
2018-May-04 10:01N 34°17' E 134°58'815.4
2018-May-04 09:31N 34°24' E 135°02'816.7
2018-May-04 09:01N 34°29' E 135°10'816.1
2018-May-04 08:30N 34°34' E 135°17'714.3
2018-May-04 08:01N 34°39' E 135°24'2 3.7
2018-May-04 07:30N 34°38' E 135°26'0 0.0
2018-May-04 06:59N 34°38' E 135°26'0 0.0
2018-May-04 06:29N 34°38' E 135°26'0 0.0
2018-May-04 05:59N 34°38' E 135°26'0 0.0
2018-May-04 05:23N 34°38' E 135°26'0 0.0
2018-May-04 04:59N 34°38' E 135°26'0 0.0
2018-May-04 04:29N 34°38' E 135°26'0 0.0
2018-May-04 03:59N 34°38' E 135°26'0 0.0
2018-May-04 03:29N 34°38' E 135°26'0 0.0
2018-May-04 02:59N 34°38' E 135°26'0 0.0
2018-May-04 02:29N 34°38' E 135°26'0 0.0
2018-May-04 01:59N 34°38' E 135°26'0 0.0
2018-May-04 01:29N 34°38' E 135°26'0 0.3
2018-May-04 00:59N 34°38' E 135°27'2 4.3
2018-May-04 00:31N 34°39' E 135°24'5 9.9
2018-May-04 00:01N 34°35' E 135°19'612.8
2018-May-03 23:31N 34°31' E 135°14'815.9
2018-May-03 23:01N 34°25' E 135°07'815.8
2018-May-03 22:31N 34°19' E 135°01'714.4
2018-May-03 22:01N 34°12' E 134°59'5 9.5
2018-May-03 21:30N 34°08' E 134°59'612.4
2018-May-03 21:00N 34°01' E 134°58'612.2
2018-May-03 20:30N 33°56' E 134°57'611.9
2018-May-03 20:00N 33°50' E 134°53'510.5
2018-May-03 19:30N 33°46' E 134°50'510.8
2018-May-03 19:00N 33°42' E 134°46'611.0
2018-May-03 18:29N 33°37' E 134°42'133 9.7
2018-May-03 04:47N 33°12' E 132°05'714.3
2018-May-03 04:16N 33°16' E 131°59'415.0
2018-May-03 04:00N 33°20' E 131°57'918.1
2018-May-03 03:30N 33°28' E 131°53'917.8
2018-May-03 03:00N 33°36' E 131°48'917.6
2018-May-03 02:31N 33°44' E 131°43'917.3
2018-May-03 02:00N 33°47' E 131°34'917.1
2018-May-03 01:30N 33°49' E 131°24'816.7
2018-May-03 01:00N 33°51' E 131°14'816.0
2018-May-03 00:30N 33°55' E 131°06'611.2
2018-May-03 00:00N 33°59' E 131°00'511.0
2018-May-02 23:31N 33°55' E 130°56'5 9.1
2018-May-02 23:00N 33°58' E 130°53'4 8.9
2018-May-02 22:30N 34°02' E 130°50'611.8
2018-May-02 22:00N 34°06' E 130°44'612.2
2018-May-02 21:30N 34°09' E 130°38'612.3
2018-May-02 21:00N 34°13' E 130°32'612.5
2018-May-02 20:30N 34°17' E 130°26'  
Track history (hours):
 
Tides and Currents Weather Stations Pressure Air Temp Water Temp Dewpoint Dewpoint Depression Visibility Wind Speed Wind Dir Waves Ship Positions

Silver Mariner

Last reported at 2018-May-12 20:12 UTC. Time now 2018-May-27 08:05 UTC.
Position N 32°55' E 128°00'.
Warning: this ship's position is 14 days out of date.

Length 288 m; draft 8.6 m.

Type: Cargo ship. MMSI: 538004545.

Date/timePositionNaut miles runAvg speedWind from/ knotsBaromVisibWave heightAir tempDewpointWater temp
2018-May-12 20:12N 32°55' E 128°00'415.9
2018-May-12 19:57N 32°59' E 128°02'816.0
2018-May-12 19:27N 33°06' E 128°06'2615.8
2018-May-12 17:49N 33°29' E 128°19'7615.6
2018-May-12 12:56N 34°40' E 128°53'1715.9
2018-May-12 11:52N 34°57' E 128°49'26 1.3
2018-May-11 15:43N 34°48' E 129°18'211.9
2018-May-11 15:30N 34°48' E 129°21'510.1
2018-May-11 15:00N 34°48' E 129°27'610.7
2018-May-11 14:29N 34°47' E 129°33'611.2
2018-May-11 13:59N 34°44' E 129°40'511.1
2018-May-11 13:30N 34°42' E 129°45'611.2
2018-May-11 13:00N 34°38' E 129°51'611.1
2018-May-11 12:30N 34°35' E 129°56'510.8
2018-May-11 12:00N 34°32' E 130°01'510.8
2018-May-11 11:30N 34°29' E 130°07'510.4
2018-May-11 11:00N 34°25' E 130°12'510.5
2018-May-11 10:30N 34°22' E 130°17'510.8
2018-May-11 10:00N 34°19' E 130°22'611.2
2018-May-11 09:30N 34°16' E 130°28'611.5
2018-May-11 09:00N 34°13' E 130°33'611.6
2018-May-11 08:30N 34°09' E 130°39'611.4
2018-May-11 08:00N 34°05' E 130°44'611.1
2018-May-11 07:30N 34°03' E 130°50'510.2
2018-May-11 07:00N 33°58' E 130°53'4 7.6
2018-May-11 06:31N 33°55' E 130°56'510.5
2018-May-11 06:00N 33°58' E 131°01'612.2
2018-May-11 05:30N 33°55' E 131°07'4 8.2
2018-May-11 05:00N 33°52' E 131°11'714.7
2018-May-11 04:30N 33°50' E 131°19'816.2
2018-May-11 04:00N 33°49' E 131°29'816.0
2018-May-11 03:30N 33°47' E 131°38'714.2
2018-May-11 03:00N 33°44' E 131°46'815.5
2018-May-11 02:30N 33°37' E 131°49'815.2
2018-May-11 02:00N 33°30' E 131°53'715.0
2018-May-11 01:30N 33°23' E 131°57'713.0
2018-May-11 01:00N 33°18' E 132°02'612.1
2018-May-11 00:29N 33°12' E 132°05'612.5
2018-May-11 00:00N 33°08' E 132°09'912.5
2018-May-10 23:16N 32°59' E 132°14'32 9.1
2018-May-10 19:44N 32°36' E 132°40'413.3
2018-May-10 19:27N 32°38' E 132°44'2711.8
2018-May-10 17:10N 32°43' E 133°15'1115.9
2018-May-10 16:30N 32°48' E 133°26'8115.5
2018-May-10 11:17N 33°38' E 134°42'1016.2
2018-May-10 10:41N 33°45' E 134°49'316.6
2018-May-10 10:29N 33°48' E 134°52'815.4
2018-May-10 09:59N 33°55' E 134°55'816.0
2018-May-10 09:30N 34°03' E 134°55'816.4
2018-May-10 09:00N 34°11' E 134°57'612.7
2018-May-10 08:31N 34°17' E 134°59'815.7
2018-May-10 08:00N 34°24' E 135°03'816.3
2018-May-10 07:30N 34°30' E 135°09'815.9
2018-May-10 07:01N 34°37' E 135°15'4 8.2
2018-May-10 06:30N 34°41' E 135°16'0 0.0
2018-May-10 06:00N 34°41' E 135°16'0 0.0
2018-May-10 05:30N 34°41' E 135°16'0 0.0
2018-May-10 05:00N 34°41' E 135°16'0 0.0
2018-May-10 04:30N 34°41' E 135°16'0 0.0
2018-May-10 04:00N 34°41' E 135°16'0 0.0
2018-May-10 03:30N 34°41' E 135°16'0 0.0
2018-May-10 02:57N 34°41' E 135°16'0 0.0
2018-May-10 02:30N 34°41' E 135°16'0 0.0
2018-May-10 02:00N 34°41' E 135°16'0 0.0
2018-May-10 01:30N 34°41' E 135°16'0 0.0
2018-May-10 01:00N 34°41' E 135°16'0 0.0
2018-May-10 00:30N 34°41' E 135°16'0 0.0
2018-May-10 00:00N 34°41' E 135°16'0 0.0
2018-May-09 23:30N 34°41' E 135°16'0 0.0
2018-May-09 23:00N 34°41' E 135°16'0 0.0
2018-May-09 22:30N 34°41' E 135°16'1 1.9
2018-May-09 22:00N 34°40' E 135°15'510.0
2018-May-09 21:31N 34°35' E 135°16'815.5
2018-May-09 21:01N 34°28' E 135°10'815.8
2018-May-09 20:31N 34°22' E 135°04'815.1
2018-May-09 20:00N 34°16' E 134°59'714.0
2018-May-09 19:30N 34°09' E 134°59'510.5
2018-May-09 19:00N 34°04' E 134°60'510.4
2018-May-09 18:30N 33°58' E 134°60'5 9.3
2018-May-09 18:00N 33°54' E 134°60'5 9.3
2018-May-09 17:30N 33°49' E 135°00'5 9.3
2018-May-09 16:59N 33°45' E 135°02'5 8.8
2018-May-09 16:25N 33°40' E 135°05'4 9.0
2018-May-09 15:56N 33°39' E 135°10'7 9.2
2018-May-09 15:09N 33°35' E 135°17'3 9.0
2018-May-09 14:52N 33°34' E 135°19'4 9.7
2018-May-09 14:25N 33°31' E 135°24'16210.1
2018-May-08 22:20N 34°22' E 138°29'610.7
2018-May-08 21:47N 34°25' E 138°35'1212.3
2018-May-08 20:48N 34°30' E 138°49'413.1
2018-May-08 20:30N 34°31' E 138°53'812.5
2018-May-08 19:51N 34°36' E 139°01'412.2
2018-May-08 19:30N 34°39' E 139°04'812.2
2018-May-08 18:50N 34°46' E 139°10'1012.0
2018-May-08 18:02N 34°53' E 139°18'012.7
2018-May-08 18:00N 34°53' E 139°18'611.7
2018-May-08 17:28N 34°56' E 139°25'611.9
2018-May-08 17:00N 34°59' E 139°31'612.7
2018-May-08 16:30N 35°02' E 139°38'714.5
2018-May-08 16:01N 35°07' E 139°44'612.8
2018-May-08 15:30N 35°13' E 139°46'612.9
2018-May-08 15:00N 35°19' E 139°43'612.7
2018-May-08 14:30N 35°26' E 139°43'2 4.8
2018-May-08 14:00N 35°28' E 139°42'0 0.0
2018-May-08 13:29N 35°28' E 139°42'0 0.0
2018-May-08 12:59N 35°28' E 139°42'0 0.0
2018-May-08 12:29N 35°28' E 139°42'0 0.0
2018-May-08 11:59N 35°28' E 139°42'0 0.0
2018-May-08 11:29N 35°28' E 139°42'0 0.0
2018-May-08 10:59N 35°28' E 139°42'0 0.0
2018-May-08 10:29N 35°28' E 139°42'0 0.0
2018-May-08 09:59N 35°28' E 139°42'0 0.0
2018-May-08 09:29N 35°28' E 139°42'0 0.0
2018-May-08 08:59N 35°28' E 139°42'0 0.0
2018-May-08 08:29N 35°28' E 139°42'0 0.0
2018-May-08 07:59N 35°28' E 139°42'0 0.0
2018-May-08 07:29N 35°28' E 139°42'0 0.0
2018-May-08 06:59N 35°28' E 139°42'0 0.0
2018-May-08 06:29N 35°28' E 139°42'0 0.0
2018-May-08 05:59N 35°28' E 139°42'0 0.0
2018-May-08 05:29N 35°28' E 139°42'0 0.0
2018-May-08 04:59N 35°28' E 139°42'0 0.0
2018-May-08 04:29N 35°28' E 139°42'0 0.0
2018-May-08 03:59N 35°28' E 139°42'0 0.0
2018-May-08 03:29N 35°28' E 139°42'0 0.0
2018-May-08 02:59N 35°28' E 139°42'0 0.0
2018-May-08 02:29N 35°28' E 139°42'0 0.0
2018-May-08 01:59N 35°28' E 139°42'0 0.0
2018-May-08 01:29N 35°28' E 139°42'0 0.0
2018-May-08 00:59N 35°28' E 139°42'0 0.0
2018-May-08 00:29N 35°28' E 139°42'0 0.0
2018-May-07 23:59N 35°28' E 139°42'0 0.0
2018-May-07 23:29N 35°28' E 139°42'0 0.0
2018-May-07 22:59N 35°28' E 139°42'0 0.2
2018-May-07 22:30N 35°28' E 139°42'3 6.2
2018-May-07 22:00N 35°27' E 139°45'4 8.3
2018-May-07 21:30N 35°29' E 139°50'5 9.9
2018-May-07 21:00N 35°34' E 139°49'3 6.7
2018-May-07 20:30N 35°36' E 139°46'0 0.0
2018-May-07 19:57N 35°36' E 139°46'0 0.0
2018-May-07 19:27N 35°36' E 139°46'0 0.0
2018-May-07 19:00N 35°36' E 139°46'0 0.0
2018-May-07 18:30N 35°36' E 139°46'0 0.0
2018-May-07 17:57N 35°36' E 139°46'0 0.0
2018-May-07 17:30N 35°36' E 139°46'0 0.0
2018-May-07 16:57N 35°36' E 139°46'0 0.0
2018-May-07 16:27N 35°36' E 139°46'0 0.0
2018-May-07 15:51N 35°36' E 139°46'0 0.0
2018-May-07 15:27N 35°36' E 139°46'0 0.0
2018-May-07 14:57N 35°36' E 139°46'0 0.0
2018-May-07 14:24N 35°36' E 139°46'0 0.0
2018-May-07 14:00N 35°36' E 139°46'0 0.0
2018-May-07 13:24N 35°36' E 139°46'0 0.0
2018-May-07 13:00N 35°36' E 139°46'0 0.0
2018-May-07 12:30N 35°36' E 139°46'0 0.0
2018-May-07 11:57N 35°36' E 139°46'0 0.0
2018-May-07 11:27N 35°36' E 139°46'0 0.0
2018-May-07 11:00N 35°36' E 139°46'0 0.0
2018-May-07 10:27N 35°36' E 139°46'0 0.0
2018-May-07 09:57N 35°36' E 139°46'0 0.0
2018-May-07 09:27N 35°36' E 139°46'0 0.0
2018-May-07 09:00N 35°36' E 139°46'0 0.0
2018-May-07 08:27N 35°36' E 139°46'0 0.0
2018-May-07 07:57N 35°36' E 139°46'0 0.0
2018-May-07 07:21N 35°36' E 139°46'0 0.0
2018-May-07 06:57N 35°36' E 139°46'0 0.1
2018-May-07 06:12N 35°36' E 139°46'0 0.2
2018-May-07 05:57N 35°36' E 139°46'2 5.6
2018-May-07 05:30N 35°34' E 139°49'3 5.5
2018-May-07 05:00N 35°34' E 139°52'0 0.7
2018-May-07 04:29N 35°34' E 139°52'0 0.0
2018-May-07 03:59N 35°34' E 139°52'0 0.1
2018-May-07 03:29N 35°34' E 139°52'0 0.0
2018-May-07 02:59N 35°34' E 139°52'0 0.0
2018-May-07 02:26N 35°34' E 139°52'0 0.0
2018-May-07 01:56N 35°34' E 139°52'0 0.0
2018-May-07 01:29N 35°34' E 139°52'0 0.1
2018-May-07 00:59N 35°34' E 139°52'0 0.0
2018-May-07 00:29N 35°34' E 139°52'0 0.1
2018-May-06 23:59N 35°34' E 139°52'0 0.0
2018-May-06 23:29N 35°34' E 139°52'0 0.0
2018-May-06 22:59N 35°34' E 139°52'0 0.0
2018-May-06 22:29N 35°34' E 139°52'0 0.0
2018-May-06 21:59N 35°34' E 139°52'0 0.0
2018-May-06 21:26N 35°34' E 139°52'0 0.0
2018-May-06 20:59N 35°34' E 139°52'0 0.0
2018-May-06 20:29N 35°34' E 139°52'0 0.0
2018-May-06 19:59N 35°34' E 139°52'0 0.0
2018-May-06 19:29N 35°34' E 139°52'0 0.0
2018-May-06 18:59N 35°34' E 139°52'0 0.0
2018-May-06 18:29N 35°34' E 139°52'0 0.0
2018-May-06 17:59N 35°34' E 139°52'0 0.0
2018-May-06 17:29N 35°34' E 139°52'0 0.0
2018-May-06 16:59N 35°34' E 139°52'0 0.0
2018-May-06 16:29N 35°34' E 139°52'0 0.1
2018-May-06 15:59N 35°34' E 139°52'0 0.0
2018-May-06 15:29N 35°34' E 139°52'0 0.0
2018-May-06 14:59N 35°34' E 139°52'0 0.0
2018-May-06 14:29N 35°34' E 139°52'0 0.0
2018-May-06 13:59N 35°34' E 139°52'0 0.0
2018-May-06 13:29N 35°34' E 139°52'0 0.5
2018-May-06 13:01N 35°34' E 139°52'4 8.3
2018-May-06 12:31N 35°30' E 139°52'714.8
2018-May-06 12:01N 35°24' E 139°46'612.7
2018-May-06 11:30N 35°18' E 139°45'611.8
2018-May-06 11:00N 35°12' E 139°47'510.1
2018-May-06 10:30N 35°08' E 139°46'5 9.6
2018-May-06 10:00N 35°03' E 139°43'510.9
2018-May-06 09:30N 34°60' E 139°38'612.3
2018-May-06 09:00N 34°56' E 139°33'612.6
2018-May-06 08:30N 34°52' E 139°26'2 3.5
2018-May-06 08:00N 34°53' E 139°28'5 9.9
2018-May-06 07:30N 34°51' E 139°23'612.9
2018-May-06 07:00N 34°47' E 139°17'918.0
2018-May-06 06:30N 34°40' E 139°09'918.2
2018-May-06 06:00N 34°34' E 139°01'917.5
2018-May-06 05:30N 34°31' E 138°51'917.6
2018-May-06 05:00N 34°30' E 138°40'917.3
2018-May-06 04:31N 34°30' E 138°30'917.0
2018-May-06 03:59N 34°29' E 138°19'816.9
2018-May-06 03:30N 34°28' E 138°09'817.3
2018-May-06 03:00N 34°28' E 137°59'917.9
2018-May-06 02:31N 34°29' E 137°48'917.8
2018-May-06 01:59N 34°29' E 137°37'817.6
2018-May-06 01:30N 34°28' E 137°27'816.8
2018-May-06 01:00N 34°28' E 137°16'1016.0
2018-May-06 00:24N 34°30' E 137°05'513.1
2018-May-06 00:00N 34°34' E 137°00'712.6
2018-May-05 23:25N 34°38' E 136°53'512.0
2018-May-05 23:00N 34°41' E 136°49'713.9
2018-May-05 22:30N 34°48' E 136°45'714.9
2018-May-05 22:00N 34°55' E 136°46'611.5
2018-May-05 21:30N 35°01' E 136°48'2 2.6
2018-May-05 20:55N 35°02' E 136°49'0 0.0
2018-May-05 20:25N 35°02' E 136°49'0 0.0
2018-May-05 19:55N 35°02' E 136°49'0 0.0
2018-May-05 19:25N 35°02' E 136°49'0 0.0
2018-May-05 18:58N 35°02' E 136°49'0 0.0
2018-May-05 18:28N 35°02' E 136°49'0 0.0
2018-May-05 17:58N 35°02' E 136°49'0 0.0
2018-May-05 17:25N 35°02' E 136°49'0 0.0
2018-May-05 16:55N 35°02' E 136°49'0 0.0
2018-May-05 16:25N 35°02' E 136°49'0 0.0
2018-May-05 15:58N 35°02' E 136°49'0 0.0
2018-May-05 15:28N 35°02' E 136°49'0 0.0
2018-May-05 14:58N 35°02' E 136°49'0 0.0
2018-May-05 14:28N 35°02' E 136°49'0 0.0
2018-May-05 13:55N 35°02' E 136°49'0 0.0
2018-May-05 13:25N 35°02' E 136°49'0 0.0
2018-May-05 12:55N 35°02' E 136°49'0 0.0
2018-May-05 12:25N 35°02' E 136°49'0 0.0
2018-May-05 11:55N 35°02' E 136°49'0 0.0
2018-May-05 11:28N 35°02' E 136°49'0 0.0
2018-May-05 10:55N 35°02' E 136°49'0 0.0
2018-May-05 10:25N 35°02' E 136°49'0 0.0
2018-May-05 09:58N 35°02' E 136°49'0 0.0
2018-May-05 09:28N 35°02' E 136°49'0 0.0
2018-May-05 08:58N 35°02' E 136°49'0 0.0
2018-May-05 08:28N 35°02' E 136°49'0 0.0
2018-May-05 07:58N 35°02' E 136°49'0 0.3
2018-May-05 07:31N 35°02' E 136°49'3 6.2
2018-May-05 07:00N 34°59' E 136°47'510.3
2018-May-05 06:30N 34°60' E 136°40'0 0.6
2018-May-05 05:59N 34°60' E 136°40'0 0.0
2018-May-05 05:29N 34°60' E 136°40'0 0.0
2018-May-05 04:59N 34°60' E 136°40'0 0.0
2018-May-05 04:29N 34°60' E 136°40'0 0.0
2018-May-05 03:47N 34°60' E 136°40'0 0.0
2018-May-05 03:29N 34°60' E 136°40'0 0.0
2018-May-05 02:59N 34°60' E 136°40'0 0.0
2018-May-05 02:29N 34°60' E 136°40'0 0.0
2018-May-05 01:59N 34°60' E 136°40'0 0.0
2018-May-05 01:29N 34°60' E 136°40'0 0.0
2018-May-05 00:59N 34°60' E 136°40'0 0.0
2018-May-05 00:29N 34°60' E 136°40'0 0.1
2018-May-04 23:59N 34°60' E 136°40'2 4.8
2018-May-04 23:30N 34°59' E 136°43'714.6
2018-May-04 23:00N 34°52' E 136°45'816.0
2018-May-04 22:30N 34°44' E 136°49'915.5
2018-May-04 21:56N 34°37' E 136°56'713.9
2018-May-04 21:27N 34°33' E 137°01'510.0
2018-May-04 20:57N 34°29' E 137°05'611.0
2018-May-04 20:26N 34°23' E 137°05'5116.0
2018-May-04 17:14N 33°42' E 136°28'5315.2
2018-May-04 13:43N 33°26' E 135°27'718.0
2018-May-04 13:19N 33°29' E 135°19'717.7
2018-May-04 12:56N 33°33' E 135°12'817.3
2018-May-04 12:30N 33°39' E 135°08'817.0
2018-May-04 12:00N 33°47' E 135°03'816.3
2018-May-04 11:30N 33°54' E 134°60'816.1
2018-May-04 11:01N 34°02' E 134°59'816.5
2018-May-04 10:30N 34°10' E 134°58'612.5
2018-May-04 10:01N 34°17' E 134°58'815.4
2018-May-04 09:31N 34°24' E 135°02'816.7
2018-May-04 09:01N 34°29' E 135°10'816.1
2018-May-04 08:30N 34°34' E 135°17'714.3
2018-May-04 08:01N 34°39' E 135°24'2 3.7
2018-May-04 07:30N 34°38' E 135°26'0 0.0
2018-May-04 06:59N 34°38' E 135°26'0 0.0
2018-May-04 06:29N 34°38' E 135°26'0 0.0
2018-May-04 05:59N 34°38' E 135°26'0 0.0
2018-May-04 05:23N 34°38' E 135°26'0 0.0
2018-May-04 04:59N 34°38' E 135°26'0 0.0
2018-May-04 04:29N 34°38' E 135°26'0 0.0
2018-May-04 03:59N 34°38' E 135°26'0 0.0
2018-May-04 03:29N 34°38' E 135°26'0 0.0
2018-May-04 02:59N 34°38' E 135°26'0 0.0
2018-May-04 02:29N 34°38' E 135°26'0 0.0
2018-May-04 01:59N 34°38' E 135°26'0 0.0
2018-May-04 01:29N 34°38' E 135°26'0 0.3
2018-May-04 00:59N 34°38' E 135°27'2 4.3
2018-May-04 00:31N 34°39' E 135°24'5 9.9
2018-May-04 00:01N 34°35' E 135°19'612.8
2018-May-03 23:31N 34°31' E 135°14'815.9
2018-May-03 23:01N 34°25' E 135°07'815.8
2018-May-03 22:31N 34°19' E 135°01'714.4
2018-May-03 22:01N 34°12' E 134°59'5 9.5
2018-May-03 21:30N 34°08' E 134°59'612.4
2018-May-03 21:00N 34°01' E 134°58'612.2
2018-May-03 20:30N 33°56' E 134°57'611.9
2018-May-03 20:00N 33°50' E 134°53'510.5
2018-May-03 19:30N 33°46' E 134°50'510.8
2018-May-03 19:00N 33°42' E 134°46'611.0
2018-May-03 18:29N 33°37' E 134°42'133 9.7
2018-May-03 04:47N 33°12' E 132°05'714.3
2018-May-03 04:16N 33°16' E 131°59'415.0
2018-May-03 04:00N 33°20' E 131°57'918.1
2018-May-03 03:30N 33°28' E 131°53'917.8
2018-May-03 03:00N 33°36' E 131°48'917.6
2018-May-03 02:31N 33°44' E 131°43'917.3
2018-May-03 02:00N 33°47' E 131°34'917.1
2018-May-03 01:30N 33°49' E 131°24'816.7
2018-May-03 01:00N 33°51' E 131°14'816.0
2018-May-03 00:30N 33°55' E 131°06'611.2
2018-May-03 00:00N 33°59' E 131°00'511.0
2018-May-02 23:31N 33°55' E 130°56'5 9.1
2018-May-02 23:00N 33°58' E 130°53'4 8.9
2018-May-02 22:30N 34°02' E 130°50'611.8
2018-May-02 22:00N 34°06' E 130°44'612.2
2018-May-02 21:30N 34°09' E 130°38'612.3
2018-May-02 21:00N 34°13' E 130°32'612.5
2018-May-02 20:30N 34°17' E 130°26'  

Dump ship's entire track history